sensor_id;sensor_type;location;lat;lon;timestamp;P1;durP1;ratioP1;P2;durP2;ratioP2
9597;SDS011;4837;50.890;4.724;2022-11-15T00:01:52;20.50;;;16.07;;
9597;SDS011;4837;50.890;4.724;2022-11-15T00:04:18;26.10;;;15.53;;
9597;SDS011;4837;50.890;4.724;2022-11-15T00:06:44;20.17;;;15.87;;
9597;SDS011;4837;50.890;4.724;2022-11-15T00:09:10;21.23;;;15.83;;
9597;SDS011;4837;50.890;4.724;2022-11-15T00:11:36;21.48;;;16.10;;
9597;SDS011;4837;50.890;4.724;2022-11-15T00:14:02;23.70;;;17.30;;
9597;SDS011;4837;50.890;4.724;2022-11-15T00:16:28;22.57;;;17.03;;
9597;SDS011;4837;50.890;4.724;2022-11-15T00:18:54;23.48;;;16.88;;
9597;SDS011;4837;50.890;4.724;2022-11-15T00:21:22;21.13;;;16.75;;
9597;SDS011;4837;50.890;4.724;2022-11-15T00:23:48;18.93;;;16.40;;
9597;SDS011;4837;50.890;4.724;2022-11-15T00:26:14;22.60;;;16.40;;
9597;SDS011;4837;50.890;4.724;2022-11-15T00:28:41;23.13;;;16.60;;
9597;SDS011;4837;50.890;4.724;2022-11-15T00:31:09;18.53;;;14.80;;
9597;SDS011;4837;50.890;4.724;2022-11-15T00:33:35;22.25;;;16.08;;
9597;SDS011;4837;50.890;4.724;2022-11-15T00:36:05;18.65;;;15.07;;
9597;SDS011;4837;50.890;4.724;2022-11-15T00:38:32;20.87;;;15.87;;
9597;SDS011;4837;50.890;4.724;2022-11-15T00:40:59;21.63;;;16.83;;
9597;SDS011;4837;50.890;4.724;2022-11-15T00:43:25;17.80;;;15.57;;
9597;SDS011;4837;50.890;4.724;2022-11-15T00:45:51;21.45;;;15.80;;
9597;SDS011;4837;50.890;4.724;2022-11-15T00:48:17;18.43;;;15.37;;
9597;SDS011;4837;50.890;4.724;2022-11-15T00:50:43;21.05;;;17.15;;
9597;SDS011;4837;50.890;4.724;2022-11-15T00:53:10;21.02;;;16.40;;
9597;SDS011;4837;50.890;4.724;2022-11-15T00:55:36;22.17;;;16.17;;
9597;SDS011;4837;50.890;4.724;2022-11-15T00:58:02;22.40;;;16.57;;
9597;SDS011;4837;50.890;4.724;2022-11-15T01:00:28;20.52;;;15.88;;
9597;SDS011;4837;50.890;4.724;2022-11-15T01:02:54;20.67;;;16.93;;
9597;SDS011;4837;50.890;4.724;2022-11-15T01:05:20;21.67;;;17.53;;
9597;SDS011;4837;50.890;4.724;2022-11-15T01:07:46;22.23;;;17.20;;
9597;SDS011;4837;50.890;4.724;2022-11-15T01:10:12;22.20;;;16.98;;
9597;SDS011;4837;50.890;4.724;2022-11-15T01:12:38;23.63;;;18.07;;
9597;SDS011;4837;50.890;4.724;2022-11-15T01:15:05;27.80;;;18.23;;
9597;SDS011;4837;50.890;4.724;2022-11-15T01:17:31;21.67;;;18.15;;
9597;SDS011;4837;50.890;4.724;2022-11-15T01:19:57;21.63;;;18.00;;
9597;SDS011;4837;50.890;4.724;2022-11-15T01:22:23;23.92;;;17.73;;
9597;SDS011;4837;50.890;4.724;2022-11-15T01:24:49;22.50;;;17.80;;
9597;SDS011;4837;50.890;4.724;2022-11-15T01:27:16;25.17;;;17.30;;
9597;SDS011;4837;50.890;4.724;2022-11-15T01:29:42;22.87;;;18.00;;
9597;SDS011;4837;50.890;4.724;2022-11-15T01:32:08;22.57;;;17.93;;
9597;SDS011;4837;50.890;4.724;2022-11-15T01:34:34;23.13;;;19.27;;
9597;SDS011;4837;50.890;4.724;2022-11-15T01:37:00;22.63;;;17.87;;
9597;SDS011;4837;50.890;4.724;2022-11-15T01:39:26;26.60;;;20.37;;
9597;SDS011;4837;50.890;4.724;2022-11-15T01:41:52;28.77;;;19.63;;
9597;SDS011;4837;50.890;4.724;2022-11-15T01:44:34;30.87;;;19.13;;
9597;SDS011;4837;50.890;4.724;2022-11-15T01:47:12;24.20;;;18.87;;
9597;SDS011;4837;50.890;4.724;2022-11-15T01:49:48;24.17;;;19.77;;
9597;SDS011;4837;50.890;4.724;2022-11-15T01:52:17;24.87;;;19.27;;
9597;SDS011;4837;50.890;4.724;2022-11-15T01:54:43;25.33;;;19.97;;
9597;SDS011;4837;50.890;4.724;2022-11-15T01:57:10;25.93;;;20.30;;
9597;SDS011;4837;50.890;4.724;2022-11-15T01:59:37;24.97;;;19.90;;
9597;SDS011;4837;50.890;4.724;2022-11-15T02:02:05;24.37;;;19.90;;
9597;SDS011;4837;50.890;4.724;2022-11-15T02:04:32;28.30;;;19.73;;
9597;SDS011;4837;50.890;4.724;2022-11-15T02:06:58;27.87;;;20.20;;
9597;SDS011;4837;50.890;4.724;2022-11-15T02:09:25;26.47;;;20.53;;
9597;SDS011;4837;50.890;4.724;2022-11-15T02:11:51;26.33;;;18.38;;
9597;SDS011;4837;50.890;4.724;2022-11-15T02:14:18;26.73;;;19.27;;
9597;SDS011;4837;50.890;4.724;2022-11-15T02:22:07;26.97;;;19.07;;
9597;SDS011;4837;50.890;4.724;2022-11-15T02:29:53;24.37;;;19.23;;
9597;SDS011;4837;50.890;4.724;2022-11-15T02:32:37;26.97;;;19.93;;
9597;SDS011;4837;50.890;4.724;2022-11-15T02:35:16;24.67;;;19.03;;
9597;SDS011;4837;50.890;4.724;2022-11-15T02:37:49;27.07;;;19.03;;
9597;SDS011;4837;50.890;4.724;2022-11-15T02:42:57;28.00;;;18.77;;
9597;SDS011;4837;50.890;4.724;2022-11-15T02:45:46;24.03;;;18.00;;
9597;SDS011;4837;50.890;4.724;2022-11-15T02:48:13;24.83;;;18.07;;
9597;SDS011;4837;50.890;4.724;2022-11-15T02:50:40;25.47;;;18.53;;
9597;SDS011;4837;50.890;4.724;2022-11-15T02:53:08;24.67;;;19.03;;
9597;SDS011;4837;50.890;4.724;2022-11-15T02:55:35;22.97;;;17.43;;
9597;SDS011;4837;50.890;4.724;2022-11-15T02:58:11;20.37;;;17.30;;
9597;SDS011;4837;50.890;4.724;2022-11-15T03:00:54;25.73;;;19.17;;
9597;SDS011;4837;50.890;4.724;2022-11-15T03:03:38;24.20;;;18.00;;
9597;SDS011;4837;50.890;4.724;2022-11-15T03:06:14;22.38;;;17.83;;
9597;SDS011;4837;50.890;4.724;2022-11-15T03:11:20;22.30;;;18.27;;
9597;SDS011;4837;50.890;4.724;2022-11-15T03:16:20;22.87;;;17.67;;
9597;SDS011;4837;50.890;4.724;2022-11-15T03:18:52;23.10;;;17.37;;
9597;SDS011;4837;50.890;4.724;2022-11-15T03:21:19;21.63;;;17.87;;
9597;SDS011;4837;50.890;4.724;2022-11-15T03:23:46;21.87;;;17.47;;
9597;SDS011;4837;50.890;4.724;2022-11-15T03:26:13;24.48;;;18.05;;
9597;SDS011;4837;50.890;4.724;2022-11-15T03:28:48;23.43;;;17.53;;
9597;SDS011;4837;50.890;4.724;2022-11-15T03:31:15;23.33;;;17.33;;
9597;SDS011;4837;50.890;4.724;2022-11-15T03:34:00;24.00;;;17.90;;
9597;SDS011;4837;50.890;4.724;2022-11-15T03:36:29;23.17;;;17.20;;
9597;SDS011;4837;50.890;4.724;2022-11-15T03:38:56;22.37;;;18.70;;
9597;SDS011;4837;50.890;4.724;2022-11-15T03:41:39;28.00;;;20.17;;
9597;SDS011;4837;50.890;4.724;2022-11-15T03:46:33;24.63;;;19.07;;
9597;SDS011;4837;50.890;4.724;2022-11-15T03:49:05;26.65;;;18.40;;
9597;SDS011;4837;50.890;4.724;2022-11-15T03:51:32;26.17;;;19.03;;
9597;SDS011;4837;50.890;4.724;2022-11-15T03:53:58;22.60;;;18.40;;
9597;SDS011;4837;50.890;4.724;2022-11-15T03:56:24;26.60;;;18.57;;
9597;SDS011;4837;50.890;4.724;2022-11-15T03:58:50;22.67;;;17.87;;
9597;SDS011;4837;50.890;4.724;2022-11-15T04:01:16;20.60;;;17.73;;
9597;SDS011;4837;50.890;4.724;2022-11-15T04:03:42;21.57;;;17.37;;
9597;SDS011;4837;50.890;4.724;2022-11-15T04:06:08;21.33;;;16.13;;
9597;SDS011;4837;50.890;4.724;2022-11-15T04:08:35;21.43;;;15.60;;
9597;SDS011;4837;50.890;4.724;2022-11-15T04:11:01;19.03;;;15.93;;
9597;SDS011;4837;50.890;4.724;2022-11-15T04:13:27;20.93;;;15.93;;
9597;SDS011;4837;50.890;4.724;2022-11-15T04:15:53;21.47;;;15.60;;
9597;SDS011;4837;50.890;4.724;2022-11-15T04:18:19;17.87;;;13.40;;
9597;SDS011;4837;50.890;4.724;2022-11-15T04:20:45;18.42;;;13.98;;
9597;SDS011;4837;50.890;4.724;2022-11-15T04:23:30;17.87;;;14.63;;
9597;SDS011;4837;50.890;4.724;2022-11-15T04:26:15;19.63;;;14.10;;
9597;SDS011;4837;50.890;4.724;2022-11-15T04:28:42;16.20;;;13.57;;
9597;SDS011;4837;50.890;4.724;2022-11-15T04:31:27;17.60;;;13.80;;
9597;SDS011;4837;50.890;4.724;2022-11-15T04:33:53;17.07;;;13.67;;
9597;SDS011;4837;50.890;4.724;2022-11-15T04:36:20;21.10;;;12.97;;
9597;SDS011;4837;50.890;4.724;2022-11-15T04:39:04;18.20;;;14.93;;
9597;SDS011;4837;50.890;4.724;2022-11-15T04:41:30;18.83;;;13.97;;
9597;SDS011;4837;50.890;4.724;2022-11-15T04:43:56;19.33;;;13.83;;
9597;SDS011;4837;50.890;4.724;2022-11-15T04:46:23;16.73;;;12.77;;
9597;SDS011;4837;50.890;4.724;2022-11-15T04:48:49;15.67;;;12.67;;
9597;SDS011;4837;50.890;4.724;2022-11-15T04:51:15;16.83;;;12.30;;
9597;SDS011;4837;50.890;4.724;2022-11-15T04:53:41;15.90;;;11.77;;
9597;SDS011;4837;50.890;4.724;2022-11-15T04:56:08;19.37;;;11.87;;
9597;SDS011;4837;50.890;4.724;2022-11-15T04:58:34;15.50;;;11.20;;
9597;SDS011;4837;50.890;4.724;2022-11-15T05:01:10;13.07;;;10.87;;
9597;SDS011;4837;50.890;4.724;2022-11-15T05:03:37;15.13;;;10.37;;
9597;SDS011;4837;50.890;4.724;2022-11-15T05:06:22;16.63;;;10.50;;
9597;SDS011;4837;50.890;4.724;2022-11-15T05:08:48;12.90;;;10.20;;
9597;SDS011;4837;50.890;4.724;2022-11-15T05:11:14;13.00;;;9.97;;
9597;SDS011;4837;50.890;4.724;2022-11-15T05:13:40;16.43;;;10.60;;
9597;SDS011;4837;50.890;4.724;2022-11-15T05:16:06;13.13;;;10.13;;
9597;SDS011;4837;50.890;4.724;2022-11-15T05:18:32;15.63;;;10.23;;
9597;SDS011;4837;50.890;4.724;2022-11-15T05:21:05;12.60;;;10.07;;
9597;SDS011;4837;50.890;4.724;2022-11-15T05:23:31;12.40;;;10.13;;
9597;SDS011;4837;50.890;4.724;2022-11-15T05:26:01;17.43;;;10.57;;
9597;SDS011;4837;50.890;4.724;2022-11-15T05:28:27;14.73;;;10.37;;
9597;SDS011;4837;50.890;4.724;2022-11-15T05:30:53;13.03;;;9.37;;
9597;SDS011;4837;50.890;4.724;2022-11-15T05:33:25;14.13;;;10.17;;
9597;SDS011;4837;50.890;4.724;2022-11-15T05:35:54;14.57;;;10.23;;
9597;SDS011;4837;50.890;4.724;2022-11-15T05:38:21;12.33;;;9.27;;
9597;SDS011;4837;50.890;4.724;2022-11-15T05:40:47;14.13;;;9.20;;
9597;SDS011;4837;50.890;4.724;2022-11-15T05:43:13;14.27;;;9.30;;
9597;SDS011;4837;50.890;4.724;2022-11-15T05:45:39;12.50;;;9.13;;
9597;SDS011;4837;50.890;4.724;2022-11-15T05:48:06;11.30;;;8.70;;
9597;SDS011;4837;50.890;4.724;2022-11-15T05:50:32;12.80;;;8.67;;
9597;SDS011;4837;50.890;4.724;2022-11-15T05:53:00;12.17;;;8.90;;
9597;SDS011;4837;50.890;4.724;2022-11-15T05:55:27;13.87;;;8.63;;
9597;SDS011;4837;50.890;4.724;2022-11-15T05:57:53;12.57;;;8.73;;
9597;SDS011;4837;50.890;4.724;2022-11-15T06:00:19;10.03;;;8.47;;
9597;SDS011;4837;50.890;4.724;2022-11-15T06:02:45;14.20;;;8.47;;
9597;SDS011;4837;50.890;4.724;2022-11-15T06:05:11;9.57;;;8.00;;
9597;SDS011;4837;50.890;4.724;2022-11-15T06:07:37;12.63;;;9.17;;
9597;SDS011;4837;50.890;4.724;2022-11-15T06:10:04;11.50;;;8.23;;
9597;SDS011;4837;50.890;4.724;2022-11-15T06:12:30;11.90;;;8.63;;
9597;SDS011;4837;50.890;4.724;2022-11-15T06:14:56;11.97;;;8.83;;
9597;SDS011;4837;50.890;4.724;2022-11-15T06:17:22;16.30;;;9.73;;
9597;SDS011;4837;50.890;4.724;2022-11-15T06:19:48;12.07;;;9.47;;
9597;SDS011;4837;50.890;4.724;2022-11-15T06:22:14;11.83;;;8.70;;
9597;SDS011;4837;50.890;4.724;2022-11-15T06:24:40;14.57;;;9.50;;
9597;SDS011;4837;50.890;4.724;2022-11-15T06:27:06;15.03;;;9.00;;
9597;SDS011;4837;50.890;4.724;2022-11-15T06:29:32;12.43;;;9.33;;
9597;SDS011;4837;50.890;4.724;2022-11-15T06:31:58;11.77;;;8.67;;
9597;SDS011;4837;50.890;4.724;2022-11-15T06:34:25;14.37;;;9.80;;
9597;SDS011;4837;50.890;4.724;2022-11-15T06:36:51;12.10;;;8.90;;
9597;SDS011;4837;50.890;4.724;2022-11-15T06:39:17;12.33;;;9.40;;
9597;SDS011;4837;50.890;4.724;2022-11-15T06:41:43;13.03;;;10.27;;
9597;SDS011;4837;50.890;4.724;2022-11-15T06:44:15;13.10;;;9.57;;
9597;SDS011;4837;50.890;4.724;2022-11-15T06:46:41;13.17;;;9.40;;
9597;SDS011;4837;50.890;4.724;2022-11-15T06:49:07;11.77;;;9.27;;
9597;SDS011;4837;50.890;4.724;2022-11-15T06:51:33;15.17;;;9.30;;
9597;SDS011;4837;50.890;4.724;2022-11-15T06:53:59;15.67;;;9.30;;
9597;SDS011;4837;50.890;4.724;2022-11-15T06:56:25;13.97;;;9.63;;
9597;SDS011;4837;50.890;4.724;2022-11-15T06:58:51;12.87;;;9.47;;
9597;SDS011;4837;50.890;4.724;2022-11-15T07:01:17;11.37;;;9.27;;
9597;SDS011;4837;50.890;4.724;2022-11-15T07:03:44;11.77;;;9.33;;
9597;SDS011;4837;50.890;4.724;2022-11-15T07:06:11;13.13;;;9.90;;
9597;SDS011;4837;50.890;4.724;2022-11-15T07:08:37;12.10;;;9.60;;
9597;SDS011;4837;50.890;4.724;2022-11-15T07:11:04;11.43;;;9.40;;
9597;SDS011;4837;50.890;4.724;2022-11-15T07:13:31;14.20;;;9.37;;
9597;SDS011;4837;50.890;4.724;2022-11-15T07:15:58;16.27;;;10.43;;
9597;SDS011;4837;50.890;4.724;2022-11-15T07:18:27;14.33;;;9.43;;
9597;SDS011;4837;50.890;4.724;2022-11-15T07:20:53;14.87;;;9.40;;
9597;SDS011;4837;50.890;4.724;2022-11-15T07:23:19;12.03;;;9.27;;
9597;SDS011;4837;50.890;4.724;2022-11-15T07:25:45;15.07;;;9.27;;
9597;SDS011;4837;50.890;4.724;2022-11-15T07:28:11;13.30;;;9.77;;
9597;SDS011;4837;50.890;4.724;2022-11-15T07:30:37;10.23;;;8.60;;
9597;SDS011;4837;50.890;4.724;2022-11-15T07:33:03;13.37;;;9.03;;
9597;SDS011;4837;50.890;4.724;2022-11-15T07:35:29;13.00;;;9.10;;
9597;SDS011;4837;50.890;4.724;2022-11-15T07:38:02;10.17;;;7.83;;
9597;SDS011;4837;50.890;4.724;2022-11-15T07:40:31;10.27;;;7.17;;
9597;SDS011;4837;50.890;4.724;2022-11-15T07:43:04;11.10;;;7.07;;
9597;SDS011;4837;50.890;4.724;2022-11-15T07:45:31;14.63;;;7.10;;
9597;SDS011;4837;50.890;4.724;2022-11-15T07:48:00;13.00;;;6.97;;
9597;SDS011;4837;50.890;4.724;2022-11-15T07:50:26;10.80;;;6.83;;
9597;SDS011;4837;50.890;4.724;2022-11-15T07:52:58;11.90;;;6.47;;
9597;SDS011;4837;50.890;4.724;2022-11-15T07:55:25;7.57;;;6.03;;
9597;SDS011;4837;50.890;4.724;2022-11-15T07:57:52;9.37;;;6.60;;
9597;SDS011;4837;50.890;4.724;2022-11-15T08:00:18;11.97;;;6.13;;
9597;SDS011;4837;50.890;4.724;2022-11-15T08:02:45;10.33;;;6.37;;
9597;SDS011;4837;50.890;4.724;2022-11-15T08:05:11;7.43;;;6.63;;
9597;SDS011;4837;50.890;4.724;2022-11-15T08:07:37;8.43;;;6.13;;
9597;SDS011;4837;50.890;4.724;2022-11-15T08:10:05;7.80;;;5.93;;
9597;SDS011;4837;50.890;4.724;2022-11-15T08:12:32;12.80;;;7.23;;
9597;SDS011;4837;50.890;4.724;2022-11-15T08:14:59;10.57;;;6.70;;
9597;SDS011;4837;50.890;4.724;2022-11-15T08:17:25;9.47;;;6.10;;
9597;SDS011;4837;50.890;4.724;2022-11-15T08:19:51;7.30;;;4.87;;
9597;SDS011;4837;50.890;4.724;2022-11-15T08:22:18;8.83;;;4.43;;
9597;SDS011;4837;50.890;4.724;2022-11-15T08:24:44;7.90;;;4.10;;
9597;SDS011;4837;50.890;4.724;2022-11-15T08:27:10;5.63;;;3.90;;
9597;SDS011;4837;50.890;4.724;2022-11-15T08:29:42;6.50;;;3.40;;
9597;SDS011;4837;50.890;4.724;2022-11-15T08:32:09;6.33;;;3.03;;
9597;SDS011;4837;50.890;4.724;2022-11-15T08:34:36;6.27;;;3.00;;
9597;SDS011;4837;50.890;4.724;2022-11-15T08:37:02;4.17;;;2.30;;
9597;SDS011;4837;50.890;4.724;2022-11-15T08:39:28;4.57;;;2.80;;
9597;SDS011;4837;50.890;4.724;2022-11-15T08:41:54;5.87;;;2.30;;
9597;SDS011;4837;50.890;4.724;2022-11-15T08:44:20;3.27;;;1.83;;
9597;SDS011;4837;50.890;4.724;2022-11-15T08:46:46;5.83;;;2.07;;
9597;SDS011;4837;50.890;4.724;2022-11-15T08:49:12;3.33;;;1.90;;
9597;SDS011;4837;50.890;4.724;2022-11-15T08:51:39;4.50;;;1.77;;
9597;SDS011;4837;50.890;4.724;2022-11-15T08:54:05;6.23;;;1.70;;
9597;SDS011;4837;50.890;4.724;2022-11-15T08:56:31;5.53;;;2.00;;
9597;SDS011;4837;50.890;4.724;2022-11-15T08:58:57;3.00;;;1.60;;
9597;SDS011;4837;50.890;4.724;2022-11-15T09:01:23;3.93;;;1.90;;
9597;SDS011;4837;50.890;4.724;2022-11-15T09:03:49;7.60;;;2.10;;
9597;SDS011;4837;50.890;4.724;2022-11-15T09:06:16;4.27;;;2.00;;
9597;SDS011;4837;50.890;4.724;2022-11-15T09:08:42;3.27;;;1.87;;
9597;SDS011;4837;50.890;4.724;2022-11-15T09:11:08;2.60;;;1.50;;
9597;SDS011;4837;50.890;4.724;2022-11-15T09:13:35;5.00;;;2.00;;
9597;SDS011;4837;50.890;4.724;2022-11-15T09:16:04;4.30;;;1.70;;
9597;SDS011;4837;50.890;4.724;2022-11-15T09:18:31;6.13;;;1.87;;
9597;SDS011;4837;50.890;4.724;2022-11-15T09:20:58;7.03;;;2.13;;
9597;SDS011;4837;50.890;4.724;2022-11-15T09:23:24;5.63;;;2.20;;
9597;SDS011;4837;50.890;4.724;2022-11-15T09:25:51;3.60;;;1.47;;
9597;SDS011;4837;50.890;4.724;2022-11-15T09:28:17;7.07;;;1.90;;
9597;SDS011;4837;50.890;4.724;2022-11-15T09:30:43;5.47;;;2.07;;
9597;SDS011;4837;50.890;4.724;2022-11-15T09:33:10;5.63;;;1.70;;
9597;SDS011;4837;50.890;4.724;2022-11-15T09:35:37;3.30;;;1.60;;
9597;SDS011;4837;50.890;4.724;2022-11-15T09:38:03;5.27;;;1.67;;
9597;SDS011;4837;50.890;4.724;2022-11-15T09:40:30;3.93;;;1.60;;
9597;SDS011;4837;50.890;4.724;2022-11-15T09:45:28;4.93;;;2.17;;
9597;SDS011;4837;50.890;4.724;2022-11-15T09:53:25;5.17;;;1.70;;
9597;SDS011;4837;50.890;4.724;2022-11-15T09:55:59;6.93;;;1.50;;
9597;SDS011;4837;50.890;4.724;2022-11-15T09:58:30;5.75;;;1.65;;
9597;SDS011;4837;50.890;4.724;2022-11-15T10:00:59;4.10;;;1.40;;
9597;SDS011;4837;50.890;4.724;2022-11-15T10:03:27;5.27;;;1.50;;
9597;SDS011;4837;50.890;4.724;2022-11-15T10:05:56;4.43;;;1.35;;
9597;SDS011;4837;50.890;4.724;2022-11-15T10:11:09;8.13;;;1.50;;
9597;SDS011;4837;50.890;4.724;2022-11-15T10:13:37;4.90;;;1.60;;
9597;SDS011;4837;50.890;4.724;2022-11-15T10:21:18;3.57;;;1.80;;
9597;SDS011;4837;50.890;4.724;2022-11-15T10:23:45;3.50;;;1.77;;
9597;SDS011;4837;50.890;4.724;2022-11-15T10:26:13;3.03;;;1.50;;
9597;SDS011;4837;50.890;4.724;2022-11-15T10:28:40;4.47;;;1.47;;
9597;SDS011;4837;50.890;4.724;2022-11-15T10:31:23;4.43;;;1.80;;
9597;SDS011;4837;50.890;4.724;2022-11-15T10:33:50;3.67;;;1.50;;
9597;SDS011;4837;50.890;4.724;2022-11-15T10:36:21;4.20;;;1.58;;
9597;SDS011;4837;50.890;4.724;2022-11-15T10:41:16;3.50;;;1.63;;
9597;SDS011;4837;50.890;4.724;2022-11-15T10:43:42;3.73;;;1.50;;
9597;SDS011;4837;50.890;4.724;2022-11-15T10:46:21;4.50;;;1.55;;
9597;SDS011;4837;50.890;4.724;2022-11-15T10:48:49;2.90;;;1.33;;
9597;SDS011;4837;50.890;4.724;2022-11-15T10:51:23;3.15;;;1.38;;
9597;SDS011;4837;50.890;4.724;2022-11-15T10:53:57;6.10;;;1.38;;
9597;SDS011;4837;50.890;4.724;2022-11-15T10:56:25;4.67;;;1.40;;
9597;SDS011;4837;50.890;4.724;2022-11-15T10:58:58;3.83;;;1.20;;
9597;SDS011;4837;50.890;4.724;2022-11-15T11:01:25;3.58;;;1.63;;
9597;SDS011;4837;50.890;4.724;2022-11-15T11:03:59;7.13;;;1.47;;
9597;SDS011;4837;50.890;4.724;2022-11-15T11:06:25;4.00;;;1.20;;
9597;SDS011;4837;50.890;4.724;2022-11-15T11:11:22;3.13;;;1.70;;
9597;SDS011;4837;50.890;4.724;2022-11-15T11:13:50;5.33;;;1.43;;
9597;SDS011;4837;50.890;4.724;2022-11-15T11:19:08;4.65;;;1.38;;
9597;SDS011;4837;50.890;4.724;2022-11-15T11:24:11;4.53;;;1.40;;
9597;SDS011;4837;50.890;4.724;2022-11-15T11:26:49;5.67;;;1.30;;
9597;SDS011;4837;50.890;4.724;2022-11-15T11:31:56;3.85;;;1.67;;
9597;SDS011;4837;50.890;4.724;2022-11-15T11:37:12;3.35;;;1.17;;
9597;SDS011;4837;50.890;4.724;2022-11-15T11:47:08;7.03;;;1.63;;
9597;SDS011;4837;50.890;4.724;2022-11-15T11:54:43;7.93;;;1.42;;
9597;SDS011;4837;50.890;4.724;2022-11-15T11:57:21;4.53;;;1.80;;
9597;SDS011;4837;50.890;4.724;2022-11-15T11:59:53;3.95;;;1.35;;
9597;SDS011;4837;50.890;4.724;2022-11-15T12:02:27;2.77;;;1.20;;
9597;SDS011;4837;50.890;4.724;2022-11-15T12:04:57;4.93;;;1.40;;
9597;SDS011;4837;50.890;4.724;2022-11-15T12:07:30;1.88;;;1.10;;
9597;SDS011;4837;50.890;4.724;2022-11-15T12:10:05;6.20;;;1.55;;
9597;SDS011;4837;50.890;4.724;2022-11-15T12:12:49;5.82;;;1.50;;
9597;SDS011;4837;50.890;4.724;2022-11-15T12:15:17;4.00;;;1.60;;
9597;SDS011;4837;50.890;4.724;2022-11-15T12:17:44;4.90;;;1.48;;
9597;SDS011;4837;50.890;4.724;2022-11-15T12:20:18;4.82;;;1.23;;
9597;SDS011;4837;50.890;4.724;2022-11-15T12:22:47;5.03;;;1.40;;
9597;SDS011;4837;50.890;4.724;2022-11-15T12:25:18;2.80;;;1.40;;
9597;SDS011;4837;50.890;4.724;2022-11-15T12:27:55;3.28;;;1.30;;
9597;SDS011;4837;50.890;4.724;2022-11-15T12:30:23;3.80;;;1.40;;
9597;SDS011;4837;50.890;4.724;2022-11-15T12:32:51;3.78;;;1.80;;
9597;SDS011;4837;50.890;4.724;2022-11-15T12:35:34;3.67;;;1.73;;
9597;SDS011;4837;50.890;4.724;2022-11-15T12:38:01;2.03;;;1.37;;
9597;SDS011;4837;50.890;4.724;2022-11-15T12:42:58;5.13;;;1.45;;
9597;SDS011;4837;50.890;4.724;2022-11-15T12:47:53;3.47;;;1.02;;
9597;SDS011;4837;50.890;4.724;2022-11-15T13:04:08;4.95;;;1.40;;
9597;SDS011;4837;50.890;4.724;2022-11-15T13:06:37;2.47;;;1.10;;
9597;SDS011;4837;50.890;4.724;2022-11-15T13:09:49;2.53;;;1.50;;
9597;SDS011;4837;50.890;4.724;2022-11-15T13:11:50;3.75;;;1.23;;
9597;SDS011;4837;50.890;4.724;2022-11-15T13:17:01;6.53;;;1.55;;
9597;SDS011;4837;50.890;4.724;2022-11-15T13:19:27;2.37;;;1.30;;
9597;SDS011;4837;50.890;4.724;2022-11-15T13:21:54;3.75;;;1.60;;
9597;SDS011;4837;50.890;4.724;2022-11-15T13:24:39;2.70;;;1.40;;
9597;SDS011;4837;50.890;4.724;2022-11-15T13:27:15;2.47;;;1.30;;
9597;SDS011;4837;50.890;4.724;2022-11-15T13:29:44;3.20;;;1.67;;
9597;SDS011;4837;50.890;4.724;2022-11-15T13:32:11;4.45;;;1.48;;
9597;SDS011;4837;50.890;4.724;2022-11-15T13:34:38;2.80;;;1.17;;
9597;SDS011;4837;50.890;4.724;2022-11-15T13:37:09;2.58;;;1.13;;
9597;SDS011;4837;50.890;4.724;2022-11-15T13:39:37;2.65;;;1.20;;
9597;SDS011;4837;50.890;4.724;2022-11-15T13:42:03;3.38;;;1.52;;
9597;SDS011;4837;50.890;4.724;2022-11-15T13:44:31;3.00;;;1.23;;
9597;SDS011;4837;50.890;4.724;2022-11-15T13:47:18;3.67;;;1.47;;
9597;SDS011;4837;50.890;4.724;2022-11-15T13:49:44;3.00;;;1.23;;
9597;SDS011;4837;50.890;4.724;2022-11-15T13:52:12;1.75;;;1.10;;
9597;SDS011;4837;50.890;4.724;2022-11-15T13:54:47;4.22;;;1.52;;
9597;SDS011;4837;50.890;4.724;2022-11-15T13:57:17;2.00;;;1.10;;
9597;SDS011;4837;50.890;4.724;2022-11-15T14:02:14;3.25;;;1.42;;
9597;SDS011;4837;50.890;4.724;2022-11-15T14:04:50;5.33;;;1.47;;
9597;SDS011;4837;50.890;4.724;2022-11-15T14:07:20;2.50;;;1.20;;
9597;SDS011;4837;50.890;4.724;2022-11-15T14:09:46;3.08;;;1.52;;
9597;SDS011;4837;50.890;4.724;2022-11-15T14:12:30;3.33;;;1.20;;
9597;SDS011;4837;50.890;4.724;2022-11-15T14:14:57;4.28;;;1.38;;
9597;SDS011;4837;50.890;4.724;2022-11-15T14:19:56;2.83;;;1.63;;
9597;SDS011;4837;50.890;4.724;2022-11-15T14:27:30;5.15;;;1.23;;
9597;SDS011;4837;50.890;4.724;2022-11-15T14:29:57;2.35;;;1.42;;
9597;SDS011;4837;50.890;4.724;2022-11-15T14:32:24;3.50;;;1.50;;
9597;SDS011;4837;50.890;4.724;2022-11-15T14:34:55;2.83;;;1.40;;
9597;SDS011;4837;50.890;4.724;2022-11-15T14:37:29;2.03;;;1.30;;
9597;SDS011;4837;50.890;4.724;2022-11-15T14:40:00;4.97;;;1.38;;
9597;SDS011;4837;50.890;4.724;2022-11-15T14:42:26;2.75;;;1.40;;
9597;SDS011;4837;50.890;4.724;2022-11-15T14:44:52;2.75;;;1.60;;
9597;SDS011;4837;50.890;4.724;2022-11-15T14:47:18;3.45;;;1.33;;
9597;SDS011;4837;50.890;4.724;2022-11-15T14:49:45;4.68;;;1.80;;
9597;SDS011;4837;50.890;4.724;2022-11-15T14:52:27;5.40;;;1.67;;
9597;SDS011;4837;50.890;4.724;2022-11-15T14:54:54;3.87;;;1.60;;
9597;SDS011;4837;50.890;4.724;2022-11-15T14:57:20;2.17;;;1.77;;
9597;SDS011;4837;50.890;4.724;2022-11-15T14:59:47;3.67;;;1.73;;
9597;SDS011;4837;50.890;4.724;2022-11-15T15:02:18;2.73;;;1.40;;
9597;SDS011;4837;50.890;4.724;2022-11-15T15:04:45;2.63;;;1.70;;
9597;SDS011;4837;50.890;4.724;2022-11-15T15:07:11;5.00;;;2.20;;
9597;SDS011;4837;50.890;4.724;2022-11-15T15:09:37;3.88;;;1.63;;
9597;SDS011;4837;50.890;4.724;2022-11-15T15:12:03;2.22;;;1.45;;
9597;SDS011;4837;50.890;4.724;2022-11-15T15:14:32;3.08;;;1.50;;
9597;SDS011;4837;50.890;4.724;2022-11-15T15:16:58;4.00;;;1.73;;
9597;SDS011;4837;50.890;4.724;2022-11-15T15:19:24;2.58;;;1.63;;
9597;SDS011;4837;50.890;4.724;2022-11-15T15:21:50;2.40;;;1.90;;
9597;SDS011;4837;50.890;4.724;2022-11-15T15:24:16;1.95;;;1.70;;
9597;SDS011;4837;50.890;4.724;2022-11-15T15:26:42;2.63;;;1.60;;
9597;SDS011;4837;50.890;4.724;2022-11-15T15:29:08;2.45;;;1.60;;
9597;SDS011;4837;50.890;4.724;2022-11-15T15:31:35;2.70;;;2.10;;
9597;SDS011;4837;50.890;4.724;2022-11-15T15:34:01;2.78;;;1.70;;
9597;SDS011;4837;50.890;4.724;2022-11-15T15:36:27;3.00;;;1.83;;
9597;SDS011;4837;50.890;4.724;2022-11-15T15:38:53;3.38;;;2.40;;
9597;SDS011;4837;50.890;4.724;2022-11-15T15:41:19;3.27;;;2.10;;
9597;SDS011;4837;50.890;4.724;2022-11-15T15:43:46;2.28;;;1.92;;
9597;SDS011;4837;50.890;4.724;2022-11-15T15:46:16;5.53;;;2.45;;
9597;SDS011;4837;50.890;4.724;2022-11-15T15:48:42;3.10;;;1.92;;
9597;SDS011;4837;50.890;4.724;2022-11-15T15:51:09;2.88;;;1.98;;
9597;SDS011;4837;50.890;4.724;2022-11-15T15:53:35;3.53;;;2.13;;
9597;SDS011;4837;50.890;4.724;2022-11-15T15:56:01;7.30;;;2.20;;
9597;SDS011;4837;50.890;4.724;2022-11-15T15:58:27;3.77;;;1.87;;
9597;SDS011;4837;50.890;4.724;2022-11-15T16:00:53;3.80;;;2.13;;
9597;SDS011;4837;50.890;4.724;2022-11-15T16:03:19;4.82;;;2.33;;
9597;SDS011;4837;50.890;4.724;2022-11-15T16:05:46;4.75;;;2.05;;
9597;SDS011;4837;50.890;4.724;2022-11-15T16:08:24;2.77;;;1.80;;
9597;SDS011;4837;50.890;4.724;2022-11-15T16:10:52;3.50;;;2.03;;
9597;SDS011;4837;50.890;4.724;2022-11-15T16:13:18;5.40;;;2.10;;
9597;SDS011;4837;50.890;4.724;2022-11-15T16:15:44;2.28;;;2.05;;
9597;SDS011;4837;50.890;4.724;2022-11-15T16:18:14;5.57;;;2.30;;
9597;SDS011;4837;50.890;4.724;2022-11-15T16:20:44;2.77;;;2.50;;
9597;SDS011;4837;50.890;4.724;2022-11-15T16:23:12;3.53;;;2.23;;
9597;SDS011;4837;50.890;4.724;2022-11-15T16:28:04;2.90;;;2.23;;
9597;SDS011;4837;50.890;4.724;2022-11-15T16:30:30;3.70;;;2.30;;
9597;SDS011;4837;50.890;4.724;2022-11-15T16:32:56;3.42;;;2.33;;
9597;SDS011;4837;50.890;4.724;2022-11-15T16:35:22;2.95;;;2.20;;
9597;SDS011;4837;50.890;4.724;2022-11-15T16:37:49;2.90;;;2.40;;
9597;SDS011;4837;50.890;4.724;2022-11-15T16:40:29;3.70;;;2.40;;
9597;SDS011;4837;50.890;4.724;2022-11-15T16:42:56;3.70;;;3.30;;
9597;SDS011;4837;50.890;4.724;2022-11-15T16:45:22;4.37;;;2.90;;
9597;SDS011;4837;50.890;4.724;2022-11-15T16:47:49;4.27;;;2.90;;
9597;SDS011;4837;50.890;4.724;2022-11-15T16:50:19;4.37;;;2.50;;